<?xml version="1.0" encoding="UTF-8" standalone="no" ?>
<gpx xmlns="http://www.topografix.com/GPX/1/1" xmlns:xsi="http://www.w3.org/2001/XMLSchema-instance" xsi:schemaLocation="http://www.topografix.com/GPX/1/1 http://www.topografix.com/GPX/1/1/gpx.xsd" version="1.1" creator="VisuGPX - https://www.visugpx.com">
  <metadata>
    <name>trail court 2016</name>
    <desc><![CDATA[trail court landul 2016]]></desc>
  </metadata>
  <trk>
    <name><![CDATA[OR-6132888--Landudal:Trail court 2016]]></name>
    <trkseg>
      <trkpt lat="48.06379" lon="-3.97628">
        <ele>122</ele>
        <time>2016-06-15T17:50:25Z</time>
      </trkpt>
      <trkpt lat="48.06375" lon="-3.97566">
        <ele>123</ele>
        <time>2016-06-15T17:52:25Z</time>
      </trkpt>
      <trkpt lat="48.06276" lon="-3.97545">
        <ele>122</ele>
        <time>2016-06-15T17:54:25Z</time>
      </trkpt>
      <trkpt lat="48.06263" lon="-3.97616">
        <ele>122</ele>
        <time>2016-06-15T17:56:25Z</time>
      </trkpt>
      <trkpt lat="48.06236" lon="-3.97766">
        <ele>119</ele>
        <time>2016-06-15T17:58:25Z</time>
      </trkpt>
      <trkpt lat="48.06132" lon="-3.97741">
        <ele>117</ele>
        <time>2016-06-15T18:00:25Z</time>
      </trkpt>
      <trkpt lat="48.06056" lon="-3.97699">
        <ele>114</ele>
        <time>2016-06-15T18:02:25Z</time>
      </trkpt>
      <trkpt lat="48.05999" lon="-3.97638">
        <ele>110</ele>
        <time>2016-06-15T18:04:25Z</time>
      </trkpt>
      <trkpt lat="48.06021" lon="-3.9758">
        <ele>110</ele>
        <time>2016-06-15T18:06:25Z</time>
      </trkpt>
      <trkpt lat="48.06051" lon="-3.97538">
        <ele>110</ele>
        <time>2016-06-15T18:08:25Z</time>
      </trkpt>
      <trkpt lat="48.06084" lon="-3.97469">
        <ele>111</ele>
        <time>2016-06-15T18:10:25Z</time>
      </trkpt>
      <trkpt lat="48.0614" lon="-3.97342">
        <ele>110</ele>
        <time>2016-06-15T18:12:25Z</time>
      </trkpt>
      <trkpt lat="48.06174" lon="-3.97263">
        <ele>107</ele>
        <time>2016-06-15T18:14:25Z</time>
      </trkpt>
      <trkpt lat="48.06175" lon="-3.97226">
        <ele>106</ele>
        <time>2016-06-15T18:16:25Z</time>
      </trkpt>
      <trkpt lat="48.06125" lon="-3.97233">
        <ele>105</ele>
        <time>2016-06-15T18:18:25Z</time>
      </trkpt>
      <trkpt lat="48.06048" lon="-3.97205">
        <ele>103</ele>
        <time>2016-06-15T18:20:25Z</time>
      </trkpt>
      <trkpt lat="48.05946" lon="-3.97232">
        <ele>96</ele>
        <time>2016-06-15T18:22:25Z</time>
      </trkpt>
      <trkpt lat="48.05874" lon="-3.97164">
        <ele>93</ele>
        <time>2016-06-15T18:24:25Z</time>
      </trkpt>
      <trkpt lat="48.05821" lon="-3.9717">
        <ele>89</ele>
        <time>2016-06-15T18:26:25Z</time>
      </trkpt>
      <trkpt lat="48.05716" lon="-3.97184">
        <ele>85</ele>
        <time>2016-06-15T18:28:25Z</time>
      </trkpt>
      <trkpt lat="48.05656" lon="-3.97191">
        <ele>83</ele>
        <time>2016-06-15T18:30:25Z</time>
      </trkpt>
      <trkpt lat="48.05658" lon="-3.97139">
        <ele>83</ele>
        <time>2016-06-15T18:32:25Z</time>
      </trkpt>
      <trkpt lat="48.05658" lon="-3.97111">
        <ele>83</ele>
        <time>2016-06-15T18:34:25Z</time>
      </trkpt>
      <trkpt lat="48.05666" lon="-3.9706">
        <ele>83</ele>
        <time>2016-06-15T18:36:25Z</time>
      </trkpt>
      <trkpt lat="48.05678" lon="-3.97006">
        <ele>84</ele>
        <time>2016-06-15T18:38:25Z</time>
      </trkpt>
      <trkpt lat="48.05707" lon="-3.96962">
        <ele>87</ele>
        <time>2016-06-15T18:40:25Z</time>
      </trkpt>
      <trkpt lat="48.05722" lon="-3.96917">
        <ele>89</ele>
        <time>2016-06-15T18:42:25Z</time>
      </trkpt>
      <trkpt lat="48.05751" lon="-3.9688">
        <ele>93</ele>
        <time>2016-06-15T18:44:25Z</time>
      </trkpt>
      <trkpt lat="48.05761" lon="-3.96845">
        <ele>95</ele>
        <time>2016-06-15T18:46:25Z</time>
      </trkpt>
      <trkpt lat="48.05792" lon="-3.96807">
        <ele>95</ele>
        <time>2016-06-15T18:48:25Z</time>
      </trkpt>
      <trkpt lat="48.05791" lon="-3.96775">
        <ele>97</ele>
        <time>2016-06-15T18:50:25Z</time>
      </trkpt>
      <trkpt lat="48.05808" lon="-3.96754">
        <ele>96</ele>
        <time>2016-06-15T18:52:25Z</time>
      </trkpt>
      <trkpt lat="48.05851" lon="-3.96673">
        <ele>100</ele>
        <time>2016-06-15T18:54:25Z</time>
      </trkpt>
      <trkpt lat="48.05883" lon="-3.96643">
        <ele>100</ele>
        <time>2016-06-15T18:56:25Z</time>
      </trkpt>
      <trkpt lat="48.05914" lon="-3.96605">
        <ele>100</ele>
        <time>2016-06-15T18:58:25Z</time>
      </trkpt>
      <trkpt lat="48.05932" lon="-3.96566">
        <ele>102</ele>
        <time>2016-06-15T19:00:25Z</time>
      </trkpt>
      <trkpt lat="48.05946" lon="-3.96538">
        <ele>104</ele>
        <time>2016-06-15T19:02:25Z</time>
      </trkpt>
      <trkpt lat="48.05923" lon="-3.96493">
        <ele>109</ele>
        <time>2016-06-15T19:04:25Z</time>
      </trkpt>
      <trkpt lat="48.05837" lon="-3.96477">
        <ele>113</ele>
        <time>2016-06-15T19:06:25Z</time>
      </trkpt>
      <trkpt lat="48.05783" lon="-3.96344">
        <ele>112</ele>
        <time>2016-06-15T19:08:25Z</time>
      </trkpt>
      <trkpt lat="48.05738" lon="-3.96365">
        <ele>110</ele>
        <time>2016-06-15T19:10:25Z</time>
      </trkpt>
      <trkpt lat="48.05723" lon="-3.96362">
        <ele>108</ele>
        <time>2016-06-15T19:12:25Z</time>
      </trkpt>
      <trkpt lat="48.05712" lon="-3.96386">
        <ele>108</ele>
        <time>2016-06-15T19:14:25Z</time>
      </trkpt>
      <trkpt lat="48.05705" lon="-3.96322">
        <ele>107</ele>
        <time>2016-06-15T19:16:25Z</time>
      </trkpt>
      <trkpt lat="48.05676" lon="-3.96294">
        <ele>106</ele>
        <time>2016-06-15T19:18:25Z</time>
      </trkpt>
      <trkpt lat="48.05638" lon="-3.96319">
        <ele>103</ele>
        <time>2016-06-15T19:20:25Z</time>
      </trkpt>
      <trkpt lat="48.05602" lon="-3.96359">
        <ele>100</ele>
        <time>2016-06-15T19:22:25Z</time>
      </trkpt>
      <trkpt lat="48.05586" lon="-3.96368">
        <ele>98</ele>
        <time>2016-06-15T19:24:25Z</time>
      </trkpt>
      <trkpt lat="48.05571" lon="-3.96392">
        <ele>97</ele>
        <time>2016-06-15T19:26:25Z</time>
      </trkpt>
      <trkpt lat="48.05557" lon="-3.964">
        <ele>96</ele>
        <time>2016-06-15T19:28:25Z</time>
      </trkpt>
      <trkpt lat="48.05546" lon="-3.96423">
        <ele>95</ele>
        <time>2016-06-15T19:30:25Z</time>
      </trkpt>
      <trkpt lat="48.05529" lon="-3.96465">
        <ele>93</ele>
        <time>2016-06-15T19:32:25Z</time>
      </trkpt>
      <trkpt lat="48.0549" lon="-3.96466">
        <ele>91</ele>
        <time>2016-06-15T19:34:25Z</time>
      </trkpt>
      <trkpt lat="48.05453" lon="-3.96459">
        <ele>90</ele>
        <time>2016-06-15T19:36:25Z</time>
      </trkpt>
      <trkpt lat="48.05429" lon="-3.96437">
        <ele>90</ele>
        <time>2016-06-15T19:38:25Z</time>
      </trkpt>
      <trkpt lat="48.05395" lon="-3.96203">
        <ele>93</ele>
        <time>2016-06-15T19:40:25Z</time>
      </trkpt>
      <trkpt lat="48.05388" lon="-3.9616">
        <ele>94</ele>
        <time>2016-06-15T19:42:25Z</time>
      </trkpt>
      <trkpt lat="48.05394" lon="-3.96126">
        <ele>94</ele>
        <time>2016-06-15T19:44:25Z</time>
      </trkpt>
      <trkpt lat="48.05415" lon="-3.96011">
        <ele>98</ele>
        <time>2016-06-15T19:46:25Z</time>
      </trkpt>
      <trkpt lat="48.05428" lon="-3.9594">
        <ele>103</ele>
        <time>2016-06-15T19:48:25Z</time>
      </trkpt>
      <trkpt lat="48.05514" lon="-3.9574">
        <ele>119</ele>
        <time>2016-06-15T19:50:25Z</time>
      </trkpt>
      <trkpt lat="48.05555" lon="-3.95743">
        <ele>123</ele>
        <time>2016-06-15T19:52:25Z</time>
      </trkpt>
      <trkpt lat="48.05586" lon="-3.95736">
        <ele>125</ele>
        <time>2016-06-15T19:54:25Z</time>
      </trkpt>
      <trkpt lat="48.05727" lon="-3.9575">
        <ele>133</ele>
        <time>2016-06-15T19:56:25Z</time>
      </trkpt>
      <trkpt lat="48.05968" lon="-3.95794">
        <ele>134</ele>
        <time>2016-06-15T19:58:25Z</time>
      </trkpt>
      <trkpt lat="48.06121" lon="-3.95721">
        <ele>137</ele>
        <time>2016-06-15T20:00:25Z</time>
      </trkpt>
      <trkpt lat="48.06023" lon="-3.95674">
        <ele>135</ele>
        <time>2016-06-15T20:02:25Z</time>
      </trkpt>
      <trkpt lat="48.05979" lon="-3.95472">
        <ele>127</ele>
        <time>2016-06-15T20:04:25Z</time>
      </trkpt>
      <trkpt lat="48.05964" lon="-3.95449">
        <ele>124</ele>
        <time>2016-06-15T20:06:25Z</time>
      </trkpt>
      <trkpt lat="48.05858" lon="-3.95414">
        <ele>118</ele>
        <time>2016-06-15T20:08:25Z</time>
      </trkpt>
      <trkpt lat="48.05867" lon="-3.95386">
        <ele>117</ele>
        <time>2016-06-15T20:10:25Z</time>
      </trkpt>
      <trkpt lat="48.05888" lon="-3.95369">
        <ele>117</ele>
        <time>2016-06-15T20:12:25Z</time>
      </trkpt>
      <trkpt lat="48.05857" lon="-3.95291">
        <ele>112</ele>
        <time>2016-06-15T20:14:25Z</time>
      </trkpt>
      <trkpt lat="48.0585" lon="-3.95244">
        <ele>110</ele>
        <time>2016-06-15T20:16:25Z</time>
      </trkpt>
      <trkpt lat="48.05849" lon="-3.95196">
        <ele>109</ele>
        <time>2016-06-15T20:18:25Z</time>
      </trkpt>
      <trkpt lat="48.05859" lon="-3.95159">
        <ele>109</ele>
        <time>2016-06-15T20:20:25Z</time>
      </trkpt>
      <trkpt lat="48.05923" lon="-3.95131">
        <ele>111</ele>
        <time>2016-06-15T20:22:25Z</time>
      </trkpt>
      <trkpt lat="48.05939" lon="-3.95107">
        <ele>108</ele>
        <time>2016-06-15T20:24:25Z</time>
      </trkpt>
      <trkpt lat="48.05888" lon="-3.94967">
        <ele>101</ele>
        <time>2016-06-15T20:26:25Z</time>
      </trkpt>
      <trkpt lat="48.05895" lon="-3.94947">
        <ele>103</ele>
        <time>2016-06-15T20:28:25Z</time>
      </trkpt>
      <trkpt lat="48.05921" lon="-3.94959">
        <ele>101</ele>
        <time>2016-06-15T20:30:25Z</time>
      </trkpt>
      <trkpt lat="48.05952" lon="-3.94926">
        <ele>102</ele>
        <time>2016-06-15T20:32:25Z</time>
      </trkpt>
      <trkpt lat="48.05954" lon="-3.94899">
        <ele>105</ele>
        <time>2016-06-15T20:34:25Z</time>
      </trkpt>
      <trkpt lat="48.05966" lon="-3.94899">
        <ele>105</ele>
        <time>2016-06-15T20:36:25Z</time>
      </trkpt>
      <trkpt lat="48.0598" lon="-3.94894">
        <ele>105</ele>
        <time>2016-06-15T20:38:25Z</time>
      </trkpt>
      <trkpt lat="48.05994" lon="-3.94895">
        <ele>104</ele>
        <time>2016-06-15T20:40:25Z</time>
      </trkpt>
      <trkpt lat="48.06013" lon="-3.94904">
        <ele>103</ele>
        <time>2016-06-15T20:42:25Z</time>
      </trkpt>
      <trkpt lat="48.06036" lon="-3.94894">
        <ele>104</ele>
        <time>2016-06-15T20:44:25Z</time>
      </trkpt>
      <trkpt lat="48.06036" lon="-3.94874">
        <ele>106</ele>
        <time>2016-06-15T20:46:25Z</time>
      </trkpt>
      <trkpt lat="48.06046" lon="-3.94839">
        <ele>109</ele>
        <time>2016-06-15T20:48:25Z</time>
      </trkpt>
      <trkpt lat="48.06063" lon="-3.94817">
        <ele>109</ele>
        <time>2016-06-15T20:50:25Z</time>
      </trkpt>
      <trkpt lat="48.06076" lon="-3.94813">
        <ele>109</ele>
        <time>2016-06-15T20:52:25Z</time>
      </trkpt>
      <trkpt lat="48.06083" lon="-3.94817">
        <ele>108</ele>
        <time>2016-06-15T20:54:25Z</time>
      </trkpt>
      <trkpt lat="48.06085" lon="-3.94806">
        <ele>109</ele>
        <time>2016-06-15T20:56:25Z</time>
      </trkpt>
      <trkpt lat="48.06099" lon="-3.94792">
        <ele>110</ele>
        <time>2016-06-15T20:58:25Z</time>
      </trkpt>
      <trkpt lat="48.06117" lon="-3.94784">
        <ele>110</ele>
        <time>2016-06-15T21:00:25Z</time>
      </trkpt>
      <trkpt lat="48.06124" lon="-3.94773">
        <ele>111</ele>
        <time>2016-06-15T21:02:25Z</time>
      </trkpt>
      <trkpt lat="48.06134" lon="-3.94765">
        <ele>111</ele>
        <time>2016-06-15T21:04:25Z</time>
      </trkpt>
      <trkpt lat="48.06164" lon="-3.9475">
        <ele>110</ele>
        <time>2016-06-15T21:06:25Z</time>
      </trkpt>
      <trkpt lat="48.06183" lon="-3.9473">
        <ele>111</ele>
        <time>2016-06-15T21:08:25Z</time>
      </trkpt>
      <trkpt lat="48.06186" lon="-3.94706">
        <ele>112</ele>
        <time>2016-06-15T21:10:25Z</time>
      </trkpt>
      <trkpt lat="48.06183" lon="-3.9469">
        <ele>114</ele>
        <time>2016-06-15T21:12:25Z</time>
      </trkpt>
      <trkpt lat="48.06174" lon="-3.94673">
        <ele>115</ele>
        <time>2016-06-15T21:14:25Z</time>
      </trkpt>
      <trkpt lat="48.06163" lon="-3.94662">
        <ele>116</ele>
        <time>2016-06-15T21:16:25Z</time>
      </trkpt>
      <trkpt lat="48.0616" lon="-3.94646">
        <ele>117</ele>
        <time>2016-06-15T21:18:25Z</time>
      </trkpt>
      <trkpt lat="48.06171" lon="-3.94624">
        <ele>117</ele>
        <time>2016-06-15T21:20:25Z</time>
      </trkpt>
      <trkpt lat="48.06172" lon="-3.94611">
        <ele>118</ele>
        <time>2016-06-15T21:22:25Z</time>
      </trkpt>
      <trkpt lat="48.06175" lon="-3.94601">
        <ele>118</ele>
        <time>2016-06-15T21:24:25Z</time>
      </trkpt>
      <trkpt lat="48.06183" lon="-3.94593">
        <ele>118</ele>
        <time>2016-06-15T21:26:25Z</time>
      </trkpt>
      <trkpt lat="48.06183" lon="-3.94581">
        <ele>119</ele>
        <time>2016-06-15T21:28:25Z</time>
      </trkpt>
      <trkpt lat="48.06191" lon="-3.94581">
        <ele>119</ele>
        <time>2016-06-15T21:30:25Z</time>
      </trkpt>
      <trkpt lat="48.06201" lon="-3.94586">
        <ele>118</ele>
        <time>2016-06-15T21:32:25Z</time>
      </trkpt>
      <trkpt lat="48.06209" lon="-3.94599">
        <ele>117</ele>
        <time>2016-06-15T21:34:25Z</time>
      </trkpt>
      <trkpt lat="48.06216" lon="-3.94612">
        <ele>117</ele>
        <time>2016-06-15T21:36:25Z</time>
      </trkpt>
      <trkpt lat="48.06221" lon="-3.94651">
        <ele>115</ele>
        <time>2016-06-15T21:38:25Z</time>
      </trkpt>
      <trkpt lat="48.06235" lon="-3.94677">
        <ele>113</ele>
        <time>2016-06-15T21:40:25Z</time>
      </trkpt>
      <trkpt lat="48.06254" lon="-3.94687">
        <ele>111</ele>
        <time>2016-06-15T21:42:25Z</time>
      </trkpt>
      <trkpt lat="48.06269" lon="-3.94683">
        <ele>112</ele>
        <time>2016-06-15T21:44:25Z</time>
      </trkpt>
      <trkpt lat="48.06287" lon="-3.9467">
        <ele>114</ele>
        <time>2016-06-15T21:46:25Z</time>
      </trkpt>
      <trkpt lat="48.06309" lon="-3.94667">
        <ele>114</ele>
        <time>2016-06-15T21:48:25Z</time>
      </trkpt>
      <trkpt lat="48.06329" lon="-3.9465">
        <ele>117</ele>
        <time>2016-06-15T21:50:25Z</time>
      </trkpt>
      <trkpt lat="48.0639" lon="-3.94631">
        <ele>119</ele>
        <time>2016-06-15T21:52:25Z</time>
      </trkpt>
      <trkpt lat="48.06404" lon="-3.94636">
        <ele>118</ele>
        <time>2016-06-15T21:54:25Z</time>
      </trkpt>
      <trkpt lat="48.06414" lon="-3.9463">
        <ele>119</ele>
        <time>2016-06-15T21:56:25Z</time>
      </trkpt>
      <trkpt lat="48.0645" lon="-3.94592">
        <ele>120</ele>
        <time>2016-06-15T21:58:25Z</time>
      </trkpt>
      <trkpt lat="48.06481" lon="-3.94524">
        <ele>123</ele>
        <time>2016-06-15T22:00:25Z</time>
      </trkpt>
      <trkpt lat="48.06499" lon="-3.94515">
        <ele>122</ele>
        <time>2016-06-15T22:02:25Z</time>
      </trkpt>
      <trkpt lat="48.06511" lon="-3.94511">
        <ele>121</ele>
        <time>2016-06-15T22:04:25Z</time>
      </trkpt>
      <trkpt lat="48.06534" lon="-3.94494">
        <ele>121</ele>
        <time>2016-06-15T22:06:25Z</time>
      </trkpt>
      <trkpt lat="48.0654" lon="-3.94457">
        <ele>126</ele>
        <time>2016-06-15T22:08:25Z</time>
      </trkpt>
      <trkpt lat="48.06544" lon="-3.94445">
        <ele>128</ele>
        <time>2016-06-15T22:10:25Z</time>
      </trkpt>
      <trkpt lat="48.06546" lon="-3.94432">
        <ele>130</ele>
        <time>2016-06-15T22:12:25Z</time>
      </trkpt>
      <trkpt lat="48.06551" lon="-3.94422">
        <ele>131</ele>
        <time>2016-06-15T22:14:25Z</time>
      </trkpt>
      <trkpt lat="48.06555" lon="-3.94397">
        <ele>134</ele>
        <time>2016-06-15T22:16:25Z</time>
      </trkpt>
      <trkpt lat="48.06571" lon="-3.94388">
        <ele>135</ele>
        <time>2016-06-15T22:18:25Z</time>
      </trkpt>
      <trkpt lat="48.06572" lon="-3.94375">
        <ele>137</ele>
        <time>2016-06-15T22:20:25Z</time>
      </trkpt>
      <trkpt lat="48.06588" lon="-3.94366">
        <ele>138</ele>
        <time>2016-06-15T22:22:25Z</time>
      </trkpt>
      <trkpt lat="48.06594" lon="-3.94341">
        <ele>142</ele>
        <time>2016-06-15T22:24:25Z</time>
      </trkpt>
      <trkpt lat="48.06608" lon="-3.94316">
        <ele>144</ele>
        <time>2016-06-15T22:26:25Z</time>
      </trkpt>
      <trkpt lat="48.06617" lon="-3.94316">
        <ele>143</ele>
        <time>2016-06-15T22:28:25Z</time>
      </trkpt>
      <trkpt lat="48.06652" lon="-3.94332">
        <ele>143</ele>
        <time>2016-06-15T22:30:25Z</time>
      </trkpt>
      <trkpt lat="48.0669" lon="-3.94362">
        <ele>138</ele>
        <time>2016-06-15T22:32:25Z</time>
      </trkpt>
      <trkpt lat="48.06724" lon="-3.94394">
        <ele>133</ele>
        <time>2016-06-15T22:34:25Z</time>
      </trkpt>
      <trkpt lat="48.06737" lon="-3.94403">
        <ele>131</ele>
        <time>2016-06-15T22:36:25Z</time>
      </trkpt>
      <trkpt lat="48.06754" lon="-3.94406">
        <ele>130</ele>
        <time>2016-06-15T22:38:25Z</time>
      </trkpt>
      <trkpt lat="48.06761" lon="-3.94396">
        <ele>131</ele>
        <time>2016-06-15T22:40:25Z</time>
      </trkpt>
      <trkpt lat="48.0678" lon="-3.94356">
        <ele>132</ele>
        <time>2016-06-15T22:42:25Z</time>
      </trkpt>
      <trkpt lat="48.06791" lon="-3.94322">
        <ele>133</ele>
        <time>2016-06-15T22:44:25Z</time>
      </trkpt>
      <trkpt lat="48.06783" lon="-3.94302">
        <ele>134</ele>
        <time>2016-06-15T22:46:25Z</time>
      </trkpt>
      <trkpt lat="48.06813" lon="-3.94126">
        <ele>130</ele>
        <time>2016-06-15T22:48:25Z</time>
      </trkpt>
      <trkpt lat="48.06846" lon="-3.94154">
        <ele>126</ele>
        <time>2016-06-15T22:50:25Z</time>
      </trkpt>
      <trkpt lat="48.06867" lon="-3.94146">
        <ele>125</ele>
        <time>2016-06-15T22:52:25Z</time>
      </trkpt>
      <trkpt lat="48.06898" lon="-3.94128">
        <ele>123</ele>
        <time>2016-06-15T22:54:25Z</time>
      </trkpt>
      <trkpt lat="48.06934" lon="-3.94098">
        <ele>123</ele>
        <time>2016-06-15T22:56:25Z</time>
      </trkpt>
      <trkpt lat="48.06943" lon="-3.9405">
        <ele>126</ele>
        <time>2016-06-15T22:58:25Z</time>
      </trkpt>
      <trkpt lat="48.06948" lon="-3.94007">
        <ele>129</ele>
        <time>2016-06-15T23:00:25Z</time>
      </trkpt>
      <trkpt lat="48.06987" lon="-3.93982">
        <ele>127</ele>
        <time>2016-06-15T23:02:25Z</time>
      </trkpt>
      <trkpt lat="48.07003" lon="-3.94011">
        <ele>125</ele>
        <time>2016-06-15T23:04:25Z</time>
      </trkpt>
      <trkpt lat="48.07022" lon="-3.94084">
        <ele>125</ele>
        <time>2016-06-15T23:06:25Z</time>
      </trkpt>
      <trkpt lat="48.07045" lon="-3.94183">
        <ele>127</ele>
        <time>2016-06-15T23:08:25Z</time>
      </trkpt>
      <trkpt lat="48.07076" lon="-3.94285">
        <ele>129</ele>
        <time>2016-06-15T23:10:25Z</time>
      </trkpt>
      <trkpt lat="48.07054" lon="-3.94318">
        <ele>129</ele>
        <time>2016-06-15T23:12:25Z</time>
      </trkpt>
      <trkpt lat="48.07052" lon="-3.94352">
        <ele>130</ele>
        <time>2016-06-15T23:14:25Z</time>
      </trkpt>
      <trkpt lat="48.07072" lon="-3.94367">
        <ele>131</ele>
        <time>2016-06-15T23:16:25Z</time>
      </trkpt>
      <trkpt lat="48.07083" lon="-3.94402">
        <ele>134</ele>
        <time>2016-06-15T23:18:25Z</time>
      </trkpt>
      <trkpt lat="48.07104" lon="-3.9441">
        <ele>135</ele>
        <time>2016-06-15T23:20:25Z</time>
      </trkpt>
      <trkpt lat="48.07129" lon="-3.94427">
        <ele>137</ele>
        <time>2016-06-15T23:22:25Z</time>
      </trkpt>
      <trkpt lat="48.07182" lon="-3.94411">
        <ele>136</ele>
        <time>2016-06-15T23:24:25Z</time>
      </trkpt>
      <trkpt lat="48.07197" lon="-3.9439">
        <ele>133</ele>
        <time>2016-06-15T23:26:25Z</time>
      </trkpt>
      <trkpt lat="48.07258" lon="-3.94351">
        <ele>129</ele>
        <time>2016-06-15T23:28:25Z</time>
      </trkpt>
      <trkpt lat="48.07308" lon="-3.94333">
        <ele>130</ele>
        <time>2016-06-15T23:30:25Z</time>
      </trkpt>
      <trkpt lat="48.07331" lon="-3.94339">
        <ele>132</ele>
        <time>2016-06-15T23:32:25Z</time>
      </trkpt>
      <trkpt lat="48.0736" lon="-3.94355">
        <ele>133</ele>
        <time>2016-06-15T23:34:25Z</time>
      </trkpt>
      <trkpt lat="48.07376" lon="-3.94374">
        <ele>135</ele>
        <time>2016-06-15T23:36:25Z</time>
      </trkpt>
      <trkpt lat="48.07388" lon="-3.94396">
        <ele>136</ele>
        <time>2016-06-15T23:38:25Z</time>
      </trkpt>
      <trkpt lat="48.07406" lon="-3.944">
        <ele>137</ele>
        <time>2016-06-15T23:40:25Z</time>
      </trkpt>
      <trkpt lat="48.07448" lon="-3.94388">
        <ele>140</ele>
        <time>2016-06-15T23:42:25Z</time>
      </trkpt>
      <trkpt lat="48.07486" lon="-3.94402">
        <ele>144</ele>
        <time>2016-06-15T23:44:25Z</time>
      </trkpt>
      <trkpt lat="48.07515" lon="-3.94409">
        <ele>145</ele>
        <time>2016-06-15T23:46:25Z</time>
      </trkpt>
      <trkpt lat="48.07524" lon="-3.94435">
        <ele>146</ele>
        <time>2016-06-15T23:48:25Z</time>
      </trkpt>
      <trkpt lat="48.07505" lon="-3.94471">
        <ele>147</ele>
        <time>2016-06-15T23:50:25Z</time>
      </trkpt>
      <trkpt lat="48.07485" lon="-3.94541">
        <ele>148</ele>
        <time>2016-06-15T23:52:25Z</time>
      </trkpt>
      <trkpt lat="48.0749" lon="-3.94668">
        <ele>146</ele>
        <time>2016-06-15T23:54:25Z</time>
      </trkpt>
      <trkpt lat="48.07599" lon="-3.94715">
        <ele>147</ele>
        <time>2016-06-15T23:56:25Z</time>
      </trkpt>
      <trkpt lat="48.0761" lon="-3.94736">
        <ele>147</ele>
        <time>2016-06-15T23:58:25Z</time>
      </trkpt>
      <trkpt lat="48.0765" lon="-3.94745">
        <ele>147</ele>
        <time>2016-06-16T00:00:25Z</time>
      </trkpt>
      <trkpt lat="48.07745" lon="-3.94805">
        <ele>155</ele>
        <time>2016-06-16T00:02:25Z</time>
      </trkpt>
      <trkpt lat="48.07797" lon="-3.9483">
        <ele>159</ele>
        <time>2016-06-16T00:04:25Z</time>
      </trkpt>
      <trkpt lat="48.0785" lon="-3.94925">
        <ele>164</ele>
        <time>2016-06-16T00:06:25Z</time>
      </trkpt>
      <trkpt lat="48.07866" lon="-3.94946">
        <ele>165</ele>
        <time>2016-06-16T00:08:25Z</time>
      </trkpt>
      <trkpt lat="48.07901" lon="-3.9496">
        <ele>167</ele>
        <time>2016-06-16T00:10:25Z</time>
      </trkpt>
      <trkpt lat="48.07911" lon="-3.94983">
        <ele>168</ele>
        <time>2016-06-16T00:12:25Z</time>
      </trkpt>
      <trkpt lat="48.0791" lon="-3.95006">
        <ele>168</ele>
        <time>2016-06-16T00:14:25Z</time>
      </trkpt>
      <trkpt lat="48.07898" lon="-3.95034">
        <ele>167</ele>
        <time>2016-06-16T00:16:25Z</time>
      </trkpt>
      <trkpt lat="48.07897" lon="-3.95061">
        <ele>166</ele>
        <time>2016-06-16T00:18:25Z</time>
      </trkpt>
      <trkpt lat="48.0788" lon="-3.95102">
        <ele>166</ele>
        <time>2016-06-16T00:20:25Z</time>
      </trkpt>
      <trkpt lat="48.07875" lon="-3.95124">
        <ele>165</ele>
        <time>2016-06-16T00:22:25Z</time>
      </trkpt>
      <trkpt lat="48.07805" lon="-3.95215">
        <ele>167</ele>
        <time>2016-06-16T00:24:25Z</time>
      </trkpt>
      <trkpt lat="48.07723" lon="-3.9527">
        <ele>166</ele>
        <time>2016-06-16T00:26:25Z</time>
      </trkpt>
      <trkpt lat="48.07711" lon="-3.95292">
        <ele>166</ele>
        <time>2016-06-16T00:28:25Z</time>
      </trkpt>
      <trkpt lat="48.07694" lon="-3.95297">
        <ele>166</ele>
        <time>2016-06-16T00:30:25Z</time>
      </trkpt>
      <trkpt lat="48.07721" lon="-3.95353">
        <ele>166</ele>
        <time>2016-06-16T00:32:25Z</time>
      </trkpt>
      <trkpt lat="48.07933" lon="-3.95517">
        <ele>173</ele>
        <time>2016-06-16T00:34:25Z</time>
      </trkpt>
      <trkpt lat="48.07939" lon="-3.9558">
        <ele>174</ele>
        <time>2016-06-16T00:36:25Z</time>
      </trkpt>
      <trkpt lat="48.07922" lon="-3.95632">
        <ele>173</ele>
        <time>2016-06-16T00:38:25Z</time>
      </trkpt>
      <trkpt lat="48.07896" lon="-3.95647">
        <ele>172</ele>
        <time>2016-06-16T00:40:25Z</time>
      </trkpt>
      <trkpt lat="48.07756" lon="-3.95951">
        <ele>162</ele>
        <time>2016-06-16T00:42:25Z</time>
      </trkpt>
      <trkpt lat="48.07544" lon="-3.95846">
        <ele>151</ele>
        <time>2016-06-16T00:44:25Z</time>
      </trkpt>
      <trkpt lat="48.0754" lon="-3.96009">
        <ele>152</ele>
        <time>2016-06-16T00:46:25Z</time>
      </trkpt>
      <trkpt lat="48.07512" lon="-3.96217">
        <ele>150</ele>
        <time>2016-06-16T00:48:25Z</time>
      </trkpt>
      <trkpt lat="48.07381" lon="-3.96236">
        <ele>152</ele>
        <time>2016-06-16T00:50:25Z</time>
      </trkpt>
      <trkpt lat="48.07347" lon="-3.96221">
        <ele>152</ele>
        <time>2016-06-16T00:52:25Z</time>
      </trkpt>
      <trkpt lat="48.07303" lon="-3.96172">
        <ele>152</ele>
        <time>2016-06-16T00:54:25Z</time>
      </trkpt>
      <trkpt lat="48.07298" lon="-3.96068">
        <ele>153</ele>
        <time>2016-06-16T00:56:25Z</time>
      </trkpt>
      <trkpt lat="48.07211" lon="-3.96031">
        <ele>152</ele>
        <time>2016-06-16T00:58:25Z</time>
      </trkpt>
      <trkpt lat="48.07194" lon="-3.96048">
        <ele>150</ele>
        <time>2016-06-16T01:00:25Z</time>
      </trkpt>
      <trkpt lat="48.0717" lon="-3.96043">
        <ele>150</ele>
        <time>2016-06-16T01:02:25Z</time>
      </trkpt>
      <trkpt lat="48.07194" lon="-3.95955">
        <ele>152</ele>
        <time>2016-06-16T01:04:25Z</time>
      </trkpt>
      <trkpt lat="48.07168" lon="-3.95944">
        <ele>152</ele>
        <time>2016-06-16T01:06:25Z</time>
      </trkpt>
      <trkpt lat="48.07101" lon="-3.9595">
        <ele>150</ele>
        <time>2016-06-16T01:08:25Z</time>
      </trkpt>
      <trkpt lat="48.06993" lon="-3.95983">
        <ele>151</ele>
        <time>2016-06-16T01:10:25Z</time>
      </trkpt>
      <trkpt lat="48.06957" lon="-3.96127">
        <ele>148</ele>
        <time>2016-06-16T01:12:25Z</time>
      </trkpt>
      <trkpt lat="48.06943" lon="-3.96214">
        <ele>148</ele>
        <time>2016-06-16T01:14:25Z</time>
      </trkpt>
      <trkpt lat="48.0694" lon="-3.96406">
        <ele>150</ele>
        <time>2016-06-16T01:16:25Z</time>
      </trkpt>
      <trkpt lat="48.0694" lon="-3.96529">
        <ele>154</ele>
        <time>2016-06-16T01:18:25Z</time>
      </trkpt>
      <trkpt lat="48.06953" lon="-3.9667">
        <ele>156</ele>
        <time>2016-06-16T01:20:25Z</time>
      </trkpt>
      <trkpt lat="48.06761" lon="-3.96688">
        <ele>156</ele>
        <time>2016-06-16T01:22:25Z</time>
      </trkpt>
      <trkpt lat="48.06719" lon="-3.96677">
        <ele>156</ele>
        <time>2016-06-16T01:24:25Z</time>
      </trkpt>
      <trkpt lat="48.06717" lon="-3.96729">
        <ele>155</ele>
        <time>2016-06-16T01:26:25Z</time>
      </trkpt>
      <trkpt lat="48.06857" lon="-3.96709">
        <ele>155</ele>
        <time>2016-06-16T01:28:25Z</time>
      </trkpt>
      <trkpt lat="48.06853" lon="-3.96432">
        <ele>154</ele>
        <time>2016-06-16T01:30:25Z</time>
      </trkpt>
      <trkpt lat="48.0673" lon="-3.96374">
        <ele>156</ele>
        <time>2016-06-16T01:32:25Z</time>
      </trkpt>
      <trkpt lat="48.06714" lon="-3.9653">
        <ele>157</ele>
        <time>2016-06-16T01:34:25Z</time>
      </trkpt>
      <trkpt lat="48.06709" lon="-3.96626">
        <ele>157</ele>
        <time>2016-06-16T01:36:25Z</time>
      </trkpt>
      <trkpt lat="48.06698" lon="-3.96681">
        <ele>156</ele>
        <time>2016-06-16T01:38:25Z</time>
      </trkpt>
      <trkpt lat="48.06591" lon="-3.96653">
        <ele>151</ele>
        <time>2016-06-16T01:40:25Z</time>
      </trkpt>
      <trkpt lat="48.06602" lon="-3.96724">
        <ele>151</ele>
        <time>2016-06-16T01:42:25Z</time>
      </trkpt>
      <trkpt lat="48.06597" lon="-3.96911">
        <ele>144</ele>
        <time>2016-06-16T01:44:25Z</time>
      </trkpt>
      <trkpt lat="48.06631" lon="-3.96906">
        <ele>147</ele>
        <time>2016-06-16T01:46:25Z</time>
      </trkpt>
      <trkpt lat="48.06645" lon="-3.96928">
        <ele>147</ele>
        <time>2016-06-16T01:48:25Z</time>
      </trkpt>
      <trkpt lat="48.06667" lon="-3.97102">
        <ele>140</ele>
        <time>2016-06-16T01:50:25Z</time>
      </trkpt>
      <trkpt lat="48.06654" lon="-3.97127">
        <ele>137</ele>
        <time>2016-06-16T01:52:25Z</time>
      </trkpt>
      <trkpt lat="48.06652" lon="-3.97177">
        <ele>134</ele>
        <time>2016-06-16T01:54:25Z</time>
      </trkpt>
      <trkpt lat="48.06654" lon="-3.97221">
        <ele>133</ele>
        <time>2016-06-16T01:56:25Z</time>
      </trkpt>
      <trkpt lat="48.06646" lon="-3.97291">
        <ele>131</ele>
        <time>2016-06-16T01:58:25Z</time>
      </trkpt>
      <trkpt lat="48.06614" lon="-3.97299">
        <ele>129</ele>
        <time>2016-06-16T02:00:25Z</time>
      </trkpt>
      <trkpt lat="48.06562" lon="-3.9732">
        <ele>127</ele>
        <time>2016-06-16T02:02:25Z</time>
      </trkpt>
      <trkpt lat="48.06544" lon="-3.97319">
        <ele>127</ele>
        <time>2016-06-16T02:04:25Z</time>
      </trkpt>
      <trkpt lat="48.06493" lon="-3.97342">
        <ele>126</ele>
        <time>2016-06-16T02:06:25Z</time>
      </trkpt>
      <trkpt lat="48.06447" lon="-3.9732">
        <ele>123</ele>
        <time>2016-06-16T02:08:25Z</time>
      </trkpt>
      <trkpt lat="48.06423" lon="-3.97314">
        <ele>121</ele>
        <time>2016-06-16T02:10:25Z</time>
      </trkpt>
      <trkpt lat="48.064" lon="-3.97311">
        <ele>120</ele>
        <time>2016-06-16T02:12:25Z</time>
      </trkpt>
      <trkpt lat="48.0636" lon="-3.97283">
        <ele>117</ele>
        <time>2016-06-16T02:14:25Z</time>
      </trkpt>
      <trkpt lat="48.06346" lon="-3.9729">
        <ele>117</ele>
        <time>2016-06-16T02:16:25Z</time>
      </trkpt>
      <trkpt lat="48.06336" lon="-3.97283">
        <ele>116</ele>
        <time>2016-06-16T02:18:25Z</time>
      </trkpt>
      <trkpt lat="48.06322" lon="-3.97282">
        <ele>115</ele>
        <time>2016-06-16T02:20:25Z</time>
      </trkpt>
      <trkpt lat="48.06307" lon="-3.97286">
        <ele>115</ele>
        <time>2016-06-16T02:22:25Z</time>
      </trkpt>
      <trkpt lat="48.06299" lon="-3.97313">
        <ele>116</ele>
        <time>2016-06-16T02:24:25Z</time>
      </trkpt>
      <trkpt lat="48.06289" lon="-3.97393">
        <ele>119</ele>
        <time>2016-06-16T02:26:25Z</time>
      </trkpt>
      <trkpt lat="48.06297" lon="-3.97435">
        <ele>120</ele>
        <time>2016-06-16T02:28:25Z</time>
      </trkpt>
      <trkpt lat="48.06396" lon="-3.97474">
        <ele>124</ele>
        <time>2016-06-16T02:30:25Z</time>
      </trkpt>
      <trkpt lat="48.06385" lon="-3.9755">
        <ele>123</ele>
        <time>2016-06-16T02:32:25Z</time>
      </trkpt>
      <trkpt lat="48.06379" lon="-3.97614">
        <ele>122</ele>
        <time>2016-06-16T02:34:25Z</time>
      </trkpt>
    </trkseg>
  </trk>
</gpx>